<?xml version="1.0" encoding="UTF-8" standalone="no" ?>
<gpx xmlns="http://www.topografix.com/GPX/1/1" xmlns:xsi="http://www.w3.org/2001/XMLSchema-instance" xsi:schemaLocation="http://www.topografix.com/GPX/1/1 http://www.topografix.com/GPX/1/1/gpx.xsd" version="1.1" creator="VisuGPX - https://www.visugpx.com">
  <metadata>
    <name>Plateau de Chenôve Balade digestive</name>
  </metadata>
  <trk>
    <name><![CDATA[29 nov. 2020 15:49:05]]></name>
    <trkseg>
      <trkpt lat="47.2835" lon="4.98631">
        <ele>345</ele>
        <time>2020-11-29T14:49:34.000Z</time>
      </trkpt>
      <trkpt lat="47.28351" lon="4.98611">
        <ele>352</ele>
        <time>2020-11-29T14:50:55.000Z</time>
      </trkpt>
      <trkpt lat="47.28355" lon="4.98598">
        <ele>358</ele>
        <time>2020-11-29T14:51:12.000Z</time>
      </trkpt>
      <trkpt lat="47.28356" lon="4.98583">
        <ele>357</ele>
        <time>2020-11-29T14:51:18.000Z</time>
      </trkpt>
      <trkpt lat="47.28359" lon="4.98569">
        <ele>357</ele>
        <time>2020-11-29T14:51:25.000Z</time>
      </trkpt>
      <trkpt lat="47.28359" lon="4.98556">
        <ele>361</ele>
        <time>2020-11-29T14:51:33.000Z</time>
      </trkpt>
      <trkpt lat="47.28363" lon="4.98542">
        <ele>357</ele>
        <time>2020-11-29T14:51:42.000Z</time>
      </trkpt>
      <trkpt lat="47.2837" lon="4.98532">
        <ele>358</ele>
        <time>2020-11-29T14:51:59.000Z</time>
      </trkpt>
      <trkpt lat="47.28371" lon="4.98519">
        <ele>361</ele>
        <time>2020-11-29T14:52:07.000Z</time>
      </trkpt>
      <trkpt lat="47.28373" lon="4.98505">
        <ele>361</ele>
        <time>2020-11-29T14:52:16.000Z</time>
      </trkpt>
      <trkpt lat="47.28376" lon="4.98491">
        <ele>360</ele>
        <time>2020-11-29T14:52:27.000Z</time>
      </trkpt>
      <trkpt lat="47.28374" lon="4.98478">
        <ele>361</ele>
        <time>2020-11-29T14:52:34.000Z</time>
      </trkpt>
      <trkpt lat="47.28374" lon="4.98464">
        <ele>365</ele>
        <time>2020-11-29T14:52:42.000Z</time>
      </trkpt>
      <trkpt lat="47.28377" lon="4.98448">
        <ele>360</ele>
        <time>2020-11-29T14:52:49.000Z</time>
      </trkpt>
      <trkpt lat="47.28383" lon="4.98439">
        <ele>361</ele>
        <time>2020-11-29T14:53:00.000Z</time>
      </trkpt>
      <trkpt lat="47.28385" lon="4.98426">
        <ele>362</ele>
        <time>2020-11-29T14:53:08.000Z</time>
      </trkpt>
      <trkpt lat="47.28393" lon="4.98418">
        <ele>359</ele>
        <time>2020-11-29T14:53:19.000Z</time>
      </trkpt>
      <trkpt lat="47.28403" lon="4.98416">
        <ele>362</ele>
        <time>2020-11-29T14:53:29.000Z</time>
      </trkpt>
      <trkpt lat="47.28412" lon="4.98412">
        <ele>362</ele>
        <time>2020-11-29T14:53:42.000Z</time>
      </trkpt>
      <trkpt lat="47.28421" lon="4.98411">
        <ele>369</ele>
        <time>2020-11-29T14:53:52.000Z</time>
      </trkpt>
      <trkpt lat="47.28431" lon="4.98414">
        <ele>367</ele>
        <time>2020-11-29T14:54:06.000Z</time>
      </trkpt>
      <trkpt lat="47.2844" lon="4.98414">
        <ele>371</ele>
        <time>2020-11-29T14:54:15.000Z</time>
      </trkpt>
      <trkpt lat="47.28449" lon="4.98407">
        <ele>372</ele>
        <time>2020-11-29T14:54:29.000Z</time>
      </trkpt>
      <trkpt lat="47.28459" lon="4.98406">
        <ele>373</ele>
        <time>2020-11-29T14:54:39.000Z</time>
      </trkpt>
      <trkpt lat="47.28469" lon="4.98407">
        <ele>373</ele>
        <time>2020-11-29T14:54:49.000Z</time>
      </trkpt>
      <trkpt lat="47.28473" lon="4.98395">
        <ele>375</ele>
        <time>2020-11-29T14:55:01.000Z</time>
      </trkpt>
      <trkpt lat="47.2848" lon="4.98388">
        <ele>373</ele>
        <time>2020-11-29T14:55:50.000Z</time>
      </trkpt>
      <trkpt lat="47.28489" lon="4.98382">
        <ele>369</ele>
        <time>2020-11-29T14:55:59.000Z</time>
      </trkpt>
      <trkpt lat="47.28497" lon="4.98377">
        <ele>368</ele>
        <time>2020-11-29T14:56:08.000Z</time>
      </trkpt>
      <trkpt lat="47.28504" lon="4.98366">
        <ele>368</ele>
        <time>2020-11-29T14:56:15.000Z</time>
      </trkpt>
      <trkpt lat="47.28511" lon="4.98355">
        <ele>363</ele>
        <time>2020-11-29T14:56:21.000Z</time>
      </trkpt>
      <trkpt lat="47.28516" lon="4.98343">
        <ele>367</ele>
        <time>2020-11-29T14:56:25.000Z</time>
      </trkpt>
      <trkpt lat="47.28525" lon="4.98336">
        <ele>369</ele>
        <time>2020-11-29T14:57:14.000Z</time>
      </trkpt>
      <trkpt lat="47.28534" lon="4.98333">
        <ele>368</ele>
        <time>2020-11-29T14:57:20.000Z</time>
      </trkpt>
      <trkpt lat="47.28543" lon="4.98329">
        <ele>370</ele>
        <time>2020-11-29T14:57:42.000Z</time>
      </trkpt>
      <trkpt lat="47.28552" lon="4.98327">
        <ele>373</ele>
        <time>2020-11-29T14:57:59.000Z</time>
      </trkpt>
      <trkpt lat="47.28555" lon="4.9834">
        <ele>376</ele>
        <time>2020-11-29T14:58:12.000Z</time>
      </trkpt>
      <trkpt lat="47.28563" lon="4.98347">
        <ele>376</ele>
        <time>2020-11-29T14:58:44.000Z</time>
      </trkpt>
      <trkpt lat="47.28573" lon="4.98351">
        <ele>378</ele>
        <time>2020-11-29T14:59:01.000Z</time>
      </trkpt>
      <trkpt lat="47.28582" lon="4.98357">
        <ele>379</ele>
        <time>2020-11-29T14:59:11.000Z</time>
      </trkpt>
      <trkpt lat="47.2859" lon="4.98364">
        <ele>382</ele>
        <time>2020-11-29T14:59:36.000Z</time>
      </trkpt>
      <trkpt lat="47.28599" lon="4.98365">
        <ele>387</ele>
        <time>2020-11-29T14:59:43.000Z</time>
      </trkpt>
      <trkpt lat="47.28607" lon="4.98359">
        <ele>387</ele>
        <time>2020-11-29T15:00:00.000Z</time>
      </trkpt>
      <trkpt lat="47.28615" lon="4.9835">
        <ele>390</ele>
        <time>2020-11-29T15:00:07.000Z</time>
      </trkpt>
      <trkpt lat="47.28622" lon="4.98341">
        <ele>396</ele>
        <time>2020-11-29T15:00:15.000Z</time>
      </trkpt>
      <trkpt lat="47.2863" lon="4.98334">
        <ele>396</ele>
        <time>2020-11-29T15:00:22.000Z</time>
      </trkpt>
      <trkpt lat="47.2864" lon="4.98337">
        <ele>389</ele>
        <time>2020-11-29T15:00:34.000Z</time>
      </trkpt>
      <trkpt lat="47.28649" lon="4.98338">
        <ele>391</ele>
        <time>2020-11-29T15:00:46.000Z</time>
      </trkpt>
      <trkpt lat="47.28658" lon="4.98336">
        <ele>394</ele>
        <time>2020-11-29T15:01:13.000Z</time>
      </trkpt>
      <trkpt lat="47.28667" lon="4.9833">
        <ele>399</ele>
        <time>2020-11-29T15:01:22.000Z</time>
      </trkpt>
      <trkpt lat="47.28676" lon="4.98326">
        <ele>400</ele>
        <time>2020-11-29T15:01:26.000Z</time>
      </trkpt>
      <trkpt lat="47.28684" lon="4.98331">
        <ele>402</ele>
        <time>2020-11-29T15:01:45.000Z</time>
      </trkpt>
      <trkpt lat="47.28694" lon="4.98326">
        <ele>399</ele>
        <time>2020-11-29T15:01:59.000Z</time>
      </trkpt>
      <trkpt lat="47.28703" lon="4.9832">
        <ele>398</ele>
        <time>2020-11-29T15:02:13.000Z</time>
      </trkpt>
      <trkpt lat="47.28711" lon="4.98313">
        <ele>401</ele>
        <time>2020-11-29T15:02:23.000Z</time>
      </trkpt>
      <trkpt lat="47.28721" lon="4.98308">
        <ele>403</ele>
        <time>2020-11-29T15:02:29.000Z</time>
      </trkpt>
      <trkpt lat="47.28728" lon="4.98299">
        <ele>406</ele>
        <time>2020-11-29T15:02:45.000Z</time>
      </trkpt>
      <trkpt lat="47.28737" lon="4.98293">
        <ele>407</ele>
        <time>2020-11-29T15:02:54.000Z</time>
      </trkpt>
      <trkpt lat="47.28744" lon="4.98283">
        <ele>413</ele>
        <time>2020-11-29T15:03:10.000Z</time>
      </trkpt>
      <trkpt lat="47.28752" lon="4.98275">
        <ele>408</ele>
        <time>2020-11-29T15:03:19.000Z</time>
      </trkpt>
      <trkpt lat="47.28761" lon="4.98269">
        <ele>408</ele>
        <time>2020-11-29T15:03:29.000Z</time>
      </trkpt>
      <trkpt lat="47.28769" lon="4.98262">
        <ele>409</ele>
        <time>2020-11-29T15:03:40.000Z</time>
      </trkpt>
      <trkpt lat="47.28776" lon="4.98254">
        <ele>407</ele>
        <time>2020-11-29T15:03:49.000Z</time>
      </trkpt>
      <trkpt lat="47.28784" lon="4.98247">
        <ele>415</ele>
        <time>2020-11-29T15:04:06.000Z</time>
      </trkpt>
      <trkpt lat="47.28791" lon="4.98236">
        <ele>418</ele>
        <time>2020-11-29T15:04:16.000Z</time>
      </trkpt>
      <trkpt lat="47.28797" lon="4.98225">
        <ele>421</ele>
        <time>2020-11-29T15:04:25.000Z</time>
      </trkpt>
      <trkpt lat="47.28804" lon="4.98217">
        <ele>421</ele>
        <time>2020-11-29T15:04:36.000Z</time>
      </trkpt>
      <trkpt lat="47.28811" lon="4.98207">
        <ele>421</ele>
        <time>2020-11-29T15:04:47.000Z</time>
      </trkpt>
      <trkpt lat="47.2882" lon="4.98202">
        <ele>421</ele>
        <time>2020-11-29T15:04:57.000Z</time>
      </trkpt>
      <trkpt lat="47.28829" lon="4.98201">
        <ele>417</ele>
        <time>2020-11-29T15:05:07.000Z</time>
      </trkpt>
      <trkpt lat="47.28837" lon="4.98209">
        <ele>417</ele>
        <time>2020-11-29T15:05:21.000Z</time>
      </trkpt>
      <trkpt lat="47.28846" lon="4.98207">
        <ele>419</ele>
        <time>2020-11-29T15:05:29.000Z</time>
      </trkpt>
      <trkpt lat="47.28855" lon="4.98201">
        <ele>417</ele>
        <time>2020-11-29T15:05:43.000Z</time>
      </trkpt>
      <trkpt lat="47.28862" lon="4.98192">
        <ele>421</ele>
        <time>2020-11-29T15:05:54.000Z</time>
      </trkpt>
      <trkpt lat="47.28871" lon="4.98185">
        <ele>419</ele>
        <time>2020-11-29T15:06:07.000Z</time>
      </trkpt>
      <trkpt lat="47.28882" lon="4.98185">
        <ele>426</ele>
        <time>2020-11-29T15:06:18.000Z</time>
      </trkpt>
      <trkpt lat="47.28898" lon="4.98173">
        <ele>429</ele>
        <time>2020-11-29T15:06:37.000Z</time>
      </trkpt>
      <trkpt lat="47.28906" lon="4.9817">
        <ele>430</ele>
        <time>2020-11-29T15:06:52.000Z</time>
      </trkpt>
      <trkpt lat="47.28916" lon="4.98167">
        <ele>423</ele>
        <time>2020-11-29T15:07:03.000Z</time>
      </trkpt>
      <trkpt lat="47.28925" lon="4.98156">
        <ele>432</ele>
        <time>2020-11-29T15:07:15.000Z</time>
      </trkpt>
      <trkpt lat="47.28934" lon="4.98146">
        <ele>426</ele>
        <time>2020-11-29T15:07:31.000Z</time>
      </trkpt>
      <trkpt lat="47.28942" lon="4.98141">
        <ele>427</ele>
        <time>2020-11-29T15:07:38.000Z</time>
      </trkpt>
      <trkpt lat="47.28951" lon="4.98137">
        <ele>430</ele>
        <time>2020-11-29T15:08:07.000Z</time>
      </trkpt>
      <trkpt lat="47.28964" lon="4.98137">
        <ele>426</ele>
        <time>2020-11-29T15:08:16.000Z</time>
      </trkpt>
      <trkpt lat="47.28976" lon="4.98136">
        <ele>430</ele>
        <time>2020-11-29T15:08:21.000Z</time>
      </trkpt>
      <trkpt lat="47.28988" lon="4.98142">
        <ele>427</ele>
        <time>2020-11-29T15:08:29.000Z</time>
      </trkpt>
      <trkpt lat="47.28996" lon="4.98149">
        <ele>428</ele>
        <time>2020-11-29T15:08:36.000Z</time>
      </trkpt>
      <trkpt lat="47.29005" lon="4.98156">
        <ele>431</ele>
        <time>2020-11-29T15:08:45.000Z</time>
      </trkpt>
      <trkpt lat="47.29014" lon="4.98161">
        <ele>425</ele>
        <time>2020-11-29T15:08:57.000Z</time>
      </trkpt>
      <trkpt lat="47.29024" lon="4.98167">
        <ele>426</ele>
        <time>2020-11-29T15:09:06.000Z</time>
      </trkpt>
      <trkpt lat="47.29034" lon="4.98171">
        <ele>427</ele>
        <time>2020-11-29T15:09:14.000Z</time>
      </trkpt>
      <trkpt lat="47.29041" lon="4.98179">
        <ele>425</ele>
        <time>2020-11-29T15:09:23.000Z</time>
      </trkpt>
      <trkpt lat="47.29053" lon="4.98184">
        <ele>425</ele>
        <time>2020-11-29T15:09:32.000Z</time>
      </trkpt>
      <trkpt lat="47.29065" lon="4.98188">
        <ele>428</ele>
        <time>2020-11-29T15:09:38.000Z</time>
      </trkpt>
      <trkpt lat="47.29074" lon="4.98194">
        <ele>426</ele>
        <time>2020-11-29T15:09:45.000Z</time>
      </trkpt>
      <trkpt lat="47.29086" lon="4.982">
        <ele>429</ele>
        <time>2020-11-29T15:09:54.000Z</time>
      </trkpt>
      <trkpt lat="47.29096" lon="4.98208">
        <ele>430</ele>
        <time>2020-11-29T15:10:02.000Z</time>
      </trkpt>
      <trkpt lat="47.29105" lon="4.98211">
        <ele>433</ele>
        <time>2020-11-29T15:10:07.000Z</time>
      </trkpt>
      <trkpt lat="47.29115" lon="4.98213">
        <ele>433</ele>
        <time>2020-11-29T15:10:14.000Z</time>
      </trkpt>
      <trkpt lat="47.29123" lon="4.98224">
        <ele>435</ele>
        <time>2020-11-29T15:10:19.000Z</time>
      </trkpt>
      <trkpt lat="47.29135" lon="4.98223">
        <ele>432</ele>
        <time>2020-11-29T15:10:29.000Z</time>
      </trkpt>
      <trkpt lat="47.29145" lon="4.98225">
        <ele>436</ele>
        <time>2020-11-29T15:10:39.000Z</time>
      </trkpt>
      <trkpt lat="47.29154" lon="4.98227">
        <ele>435</ele>
        <time>2020-11-29T15:10:46.000Z</time>
      </trkpt>
      <trkpt lat="47.29166" lon="4.98233">
        <ele>431</ele>
        <time>2020-11-29T15:10:56.000Z</time>
      </trkpt>
      <trkpt lat="47.29178" lon="4.9824">
        <ele>424</ele>
        <time>2020-11-29T15:11:14.000Z</time>
      </trkpt>
      <trkpt lat="47.29187" lon="4.98248">
        <ele>420</ele>
        <time>2020-11-29T15:11:19.000Z</time>
      </trkpt>
      <trkpt lat="47.29196" lon="4.98257">
        <ele>422</ele>
        <time>2020-11-29T15:11:29.000Z</time>
      </trkpt>
      <trkpt lat="47.29206" lon="4.9826">
        <ele>427</ele>
        <time>2020-11-29T15:11:36.000Z</time>
      </trkpt>
      <trkpt lat="47.29216" lon="4.98266">
        <ele>428</ele>
        <time>2020-11-29T15:11:44.000Z</time>
      </trkpt>
      <trkpt lat="47.29227" lon="4.98269">
        <ele>430</ele>
        <time>2020-11-29T15:11:50.000Z</time>
      </trkpt>
      <trkpt lat="47.29235" lon="4.98274">
        <ele>428</ele>
        <time>2020-11-29T15:11:56.000Z</time>
      </trkpt>
      <trkpt lat="47.29246" lon="4.98285">
        <ele>426</ele>
        <time>2020-11-29T15:12:08.000Z</time>
      </trkpt>
      <trkpt lat="47.29255" lon="4.9829">
        <ele>430</ele>
        <time>2020-11-29T15:12:17.000Z</time>
      </trkpt>
      <trkpt lat="47.29265" lon="4.98296">
        <ele>430</ele>
        <time>2020-11-29T15:12:25.000Z</time>
      </trkpt>
      <trkpt lat="47.29272" lon="4.98306">
        <ele>427</ele>
        <time>2020-11-29T15:12:36.000Z</time>
      </trkpt>
      <trkpt lat="47.29282" lon="4.9831">
        <ele>430</ele>
        <time>2020-11-29T15:12:44.000Z</time>
      </trkpt>
      <trkpt lat="47.29293" lon="4.98313">
        <ele>431</ele>
        <time>2020-11-29T15:12:52.000Z</time>
      </trkpt>
      <trkpt lat="47.29302" lon="4.98318">
        <ele>429</ele>
        <time>2020-11-29T15:13:00.000Z</time>
      </trkpt>
      <trkpt lat="47.29311" lon="4.98322">
        <ele>433</ele>
        <time>2020-11-29T15:13:06.000Z</time>
      </trkpt>
      <trkpt lat="47.2932" lon="4.98327">
        <ele>434</ele>
        <time>2020-11-29T15:13:16.000Z</time>
      </trkpt>
      <trkpt lat="47.29329" lon="4.9833">
        <ele>435</ele>
        <time>2020-11-29T15:13:25.000Z</time>
      </trkpt>
      <trkpt lat="47.29338" lon="4.98333">
        <ele>436</ele>
        <time>2020-11-29T15:13:30.000Z</time>
      </trkpt>
      <trkpt lat="47.29347" lon="4.98334">
        <ele>436</ele>
        <time>2020-11-29T15:13:37.000Z</time>
      </trkpt>
      <trkpt lat="47.29358" lon="4.98332">
        <ele>436</ele>
        <time>2020-11-29T15:13:51.000Z</time>
      </trkpt>
      <trkpt lat="47.29368" lon="4.98335">
        <ele>437</ele>
        <time>2020-11-29T15:13:59.000Z</time>
      </trkpt>
      <trkpt lat="47.29377" lon="4.9834">
        <ele>434</ele>
        <time>2020-11-29T15:14:06.000Z</time>
      </trkpt>
      <trkpt lat="47.2939" lon="4.98348">
        <ele>436</ele>
        <time>2020-11-29T15:14:14.000Z</time>
      </trkpt>
      <trkpt lat="47.29399" lon="4.9836">
        <ele>437</ele>
        <time>2020-11-29T15:14:25.000Z</time>
      </trkpt>
      <trkpt lat="47.29406" lon="4.98369">
        <ele>434</ele>
        <time>2020-11-29T15:14:33.000Z</time>
      </trkpt>
      <trkpt lat="47.29412" lon="4.98384">
        <ele>434</ele>
        <time>2020-11-29T15:14:45.000Z</time>
      </trkpt>
      <trkpt lat="47.29421" lon="4.98392">
        <ele>433</ele>
        <time>2020-11-29T15:14:53.000Z</time>
      </trkpt>
      <trkpt lat="47.2943" lon="4.984">
        <ele>432</ele>
        <time>2020-11-29T15:15:01.000Z</time>
      </trkpt>
      <trkpt lat="47.29438" lon="4.9841">
        <ele>436</ele>
        <time>2020-11-29T15:15:11.000Z</time>
      </trkpt>
      <trkpt lat="47.29447" lon="4.98417">
        <ele>436</ele>
        <time>2020-11-29T15:15:19.000Z</time>
      </trkpt>
      <trkpt lat="47.29456" lon="4.98425">
        <ele>437</ele>
        <time>2020-11-29T15:15:28.000Z</time>
      </trkpt>
      <trkpt lat="47.29465" lon="4.98433">
        <ele>437</ele>
        <time>2020-11-29T15:15:33.000Z</time>
      </trkpt>
      <trkpt lat="47.29475" lon="4.98441">
        <ele>435</ele>
        <time>2020-11-29T15:15:41.000Z</time>
      </trkpt>
      <trkpt lat="47.29483" lon="4.9845">
        <ele>436</ele>
        <time>2020-11-29T15:15:53.000Z</time>
      </trkpt>
      <trkpt lat="47.29494" lon="4.98454">
        <ele>436</ele>
        <time>2020-11-29T15:16:02.000Z</time>
      </trkpt>
      <trkpt lat="47.29503" lon="4.9846">
        <ele>438</ele>
        <time>2020-11-29T15:16:11.000Z</time>
      </trkpt>
      <trkpt lat="47.29513" lon="4.98467">
        <ele>438</ele>
        <time>2020-11-29T15:16:17.000Z</time>
      </trkpt>
      <trkpt lat="47.29518" lon="4.9848">
        <ele>435</ele>
        <time>2020-11-29T15:16:25.000Z</time>
      </trkpt>
      <trkpt lat="47.29523" lon="4.98494">
        <ele>436</ele>
        <time>2020-11-29T15:16:33.000Z</time>
      </trkpt>
      <trkpt lat="47.2953" lon="4.98508">
        <ele>436</ele>
        <time>2020-11-29T15:16:43.000Z</time>
      </trkpt>
      <trkpt lat="47.29538" lon="4.98518">
        <ele>435</ele>
        <time>2020-11-29T15:16:50.000Z</time>
      </trkpt>
      <trkpt lat="47.29546" lon="4.98526">
        <ele>434</ele>
        <time>2020-11-29T15:16:58.000Z</time>
      </trkpt>
      <trkpt lat="47.29555" lon="4.98539">
        <ele>432</ele>
        <time>2020-11-29T15:17:07.000Z</time>
      </trkpt>
      <trkpt lat="47.2956" lon="4.98551">
        <ele>434</ele>
        <time>2020-11-29T15:17:16.000Z</time>
      </trkpt>
      <trkpt lat="47.29566" lon="4.98564">
        <ele>436</ele>
        <time>2020-11-29T15:17:28.000Z</time>
      </trkpt>
      <trkpt lat="47.29572" lon="4.98575">
        <ele>435</ele>
        <time>2020-11-29T15:17:35.000Z</time>
      </trkpt>
      <trkpt lat="47.29577" lon="4.98587">
        <ele>436</ele>
        <time>2020-11-29T15:17:39.000Z</time>
      </trkpt>
      <trkpt lat="47.29589" lon="4.98599">
        <ele>439</ele>
        <time>2020-11-29T15:17:48.000Z</time>
      </trkpt>
      <trkpt lat="47.29596" lon="4.98609">
        <ele>434</ele>
        <time>2020-11-29T15:17:58.000Z</time>
      </trkpt>
      <trkpt lat="47.29601" lon="4.98623">
        <ele>435</ele>
        <time>2020-11-29T15:18:08.000Z</time>
      </trkpt>
      <trkpt lat="47.29607" lon="4.98639">
        <ele>436</ele>
        <time>2020-11-29T15:18:16.000Z</time>
      </trkpt>
      <trkpt lat="47.29614" lon="4.98652">
        <ele>434</ele>
        <time>2020-11-29T15:18:27.000Z</time>
      </trkpt>
      <trkpt lat="47.2962" lon="4.98662">
        <ele>432</ele>
        <time>2020-11-29T15:18:36.000Z</time>
      </trkpt>
      <trkpt lat="47.29625" lon="4.98676">
        <ele>432</ele>
        <time>2020-11-29T15:18:44.000Z</time>
      </trkpt>
      <trkpt lat="47.29631" lon="4.98691">
        <ele>434</ele>
        <time>2020-11-29T15:18:51.000Z</time>
      </trkpt>
      <trkpt lat="47.29634" lon="4.98704">
        <ele>434</ele>
        <time>2020-11-29T15:18:58.000Z</time>
      </trkpt>
      <trkpt lat="47.29642" lon="4.98727">
        <ele>438</ele>
        <time>2020-11-29T15:19:08.000Z</time>
      </trkpt>
      <trkpt lat="47.29639" lon="4.9874">
        <ele>437</ele>
        <time>2020-11-29T15:19:15.000Z</time>
      </trkpt>
      <trkpt lat="47.29642" lon="4.98755">
        <ele>434</ele>
        <time>2020-11-29T15:19:22.000Z</time>
      </trkpt>
      <trkpt lat="47.29642" lon="4.98773">
        <ele>433</ele>
        <time>2020-11-29T15:19:29.000Z</time>
      </trkpt>
      <trkpt lat="47.29645" lon="4.98792">
        <ele>435</ele>
        <time>2020-11-29T15:19:42.000Z</time>
      </trkpt>
      <trkpt lat="47.2965" lon="4.98809">
        <ele>429</ele>
        <time>2020-11-29T15:19:50.000Z</time>
      </trkpt>
      <trkpt lat="47.29657" lon="4.98822">
        <ele>431</ele>
        <time>2020-11-29T15:20:00.000Z</time>
      </trkpt>
      <trkpt lat="47.2966" lon="4.98841">
        <ele>436</ele>
        <time>2020-11-29T15:20:08.000Z</time>
      </trkpt>
      <trkpt lat="47.29664" lon="4.98856">
        <ele>435</ele>
        <time>2020-11-29T15:20:18.000Z</time>
      </trkpt>
      <trkpt lat="47.29668" lon="4.98869">
        <ele>434</ele>
        <time>2020-11-29T15:20:28.000Z</time>
      </trkpt>
      <trkpt lat="47.29674" lon="4.98882">
        <ele>432</ele>
        <time>2020-11-29T15:20:40.000Z</time>
      </trkpt>
      <trkpt lat="47.2968" lon="4.98899">
        <ele>435</ele>
        <time>2020-11-29T15:20:47.000Z</time>
      </trkpt>
      <trkpt lat="47.29683" lon="4.98915">
        <ele>439</ele>
        <time>2020-11-29T15:20:55.000Z</time>
      </trkpt>
      <trkpt lat="47.29689" lon="4.98927">
        <ele>437</ele>
        <time>2020-11-29T15:21:05.000Z</time>
      </trkpt>
      <trkpt lat="47.29692" lon="4.9894">
        <ele>435</ele>
        <time>2020-11-29T15:21:13.000Z</time>
      </trkpt>
      <trkpt lat="47.29695" lon="4.98955">
        <ele>434</ele>
        <time>2020-11-29T15:21:20.000Z</time>
      </trkpt>
      <trkpt lat="47.29699" lon="4.98972">
        <ele>433</ele>
        <time>2020-11-29T15:21:25.000Z</time>
      </trkpt>
      <trkpt lat="47.29705" lon="4.98991">
        <ele>430</ele>
        <time>2020-11-29T15:21:33.000Z</time>
      </trkpt>
      <trkpt lat="47.29707" lon="4.99005">
        <ele>431</ele>
        <time>2020-11-29T15:21:39.000Z</time>
      </trkpt>
      <trkpt lat="47.29713" lon="4.99017">
        <ele>429</ele>
        <time>2020-11-29T15:21:53.000Z</time>
      </trkpt>
      <trkpt lat="47.29721" lon="4.99025">
        <ele>425</ele>
        <time>2020-11-29T15:22:03.000Z</time>
      </trkpt>
      <trkpt lat="47.29728" lon="4.99039">
        <ele>422</ele>
        <time>2020-11-29T15:22:11.000Z</time>
      </trkpt>
      <trkpt lat="47.29735" lon="4.99055">
        <ele>421</ele>
        <time>2020-11-29T15:22:21.000Z</time>
      </trkpt>
      <trkpt lat="47.29743" lon="4.99068">
        <ele>422</ele>
        <time>2020-11-29T15:22:26.000Z</time>
      </trkpt>
      <trkpt lat="47.29751" lon="4.99081">
        <ele>421</ele>
        <time>2020-11-29T15:22:35.000Z</time>
      </trkpt>
      <trkpt lat="47.29756" lon="4.99096">
        <ele>423</ele>
        <time>2020-11-29T15:22:47.000Z</time>
      </trkpt>
      <trkpt lat="47.29764" lon="4.99108">
        <ele>423</ele>
        <time>2020-11-29T15:22:55.000Z</time>
      </trkpt>
      <trkpt lat="47.29771" lon="4.99118">
        <ele>424</ele>
        <time>2020-11-29T15:23:02.000Z</time>
      </trkpt>
      <trkpt lat="47.29778" lon="4.99131">
        <ele>422</ele>
        <time>2020-11-29T15:23:10.000Z</time>
      </trkpt>
      <trkpt lat="47.29773" lon="4.99144">
        <ele>424</ele>
        <time>2020-11-29T15:23:17.000Z</time>
      </trkpt>
      <trkpt lat="47.2977" lon="4.99162">
        <ele>425</ele>
        <time>2020-11-29T15:23:25.000Z</time>
      </trkpt>
      <trkpt lat="47.29768" lon="4.99177">
        <ele>421</ele>
        <time>2020-11-29T15:23:35.000Z</time>
      </trkpt>
      <trkpt lat="47.29764" lon="4.99192">
        <ele>420</ele>
        <time>2020-11-29T15:23:41.000Z</time>
      </trkpt>
      <trkpt lat="47.29767" lon="4.99206">
        <ele>424</ele>
        <time>2020-11-29T15:23:51.000Z</time>
      </trkpt>
      <trkpt lat="47.29773" lon="4.9922">
        <ele>418</ele>
        <time>2020-11-29T15:24:03.000Z</time>
      </trkpt>
      <trkpt lat="47.29782" lon="4.99229">
        <ele>414</ele>
        <time>2020-11-29T15:24:10.000Z</time>
      </trkpt>
      <trkpt lat="47.2979" lon="4.99238">
        <ele>414</ele>
        <time>2020-11-29T15:24:22.000Z</time>
      </trkpt>
      <trkpt lat="47.29799" lon="4.99247">
        <ele>412</ele>
        <time>2020-11-29T15:24:42.000Z</time>
      </trkpt>
      <trkpt lat="47.29807" lon="4.99258">
        <ele>415</ele>
        <time>2020-11-29T15:24:47.000Z</time>
      </trkpt>
      <trkpt lat="47.29815" lon="4.9927">
        <ele>415</ele>
        <time>2020-11-29T15:24:52.000Z</time>
      </trkpt>
      <trkpt lat="47.29828" lon="4.99278">
        <ele>416</ele>
        <time>2020-11-29T15:24:57.000Z</time>
      </trkpt>
      <trkpt lat="47.29837" lon="4.99286">
        <ele>418</ele>
        <time>2020-11-29T15:25:04.000Z</time>
      </trkpt>
      <trkpt lat="47.29846" lon="4.99294">
        <ele>422</ele>
        <time>2020-11-29T15:25:11.000Z</time>
      </trkpt>
      <trkpt lat="47.29851" lon="4.99305">
        <ele>417</ele>
        <time>2020-11-29T15:25:34.000Z</time>
      </trkpt>
      <trkpt lat="47.29846" lon="4.99318">
        <ele>415</ele>
        <time>2020-11-29T15:25:41.000Z</time>
      </trkpt>
      <trkpt lat="47.29839" lon="4.99328">
        <ele>415</ele>
        <time>2020-11-29T15:25:47.000Z</time>
      </trkpt>
      <trkpt lat="47.29829" lon="4.99335">
        <ele>420</ele>
        <time>2020-11-29T15:25:54.000Z</time>
      </trkpt>
      <trkpt lat="47.29816" lon="4.99342">
        <ele>420</ele>
        <time>2020-11-29T15:26:02.000Z</time>
      </trkpt>
      <trkpt lat="47.29805" lon="4.99341">
        <ele>413</ele>
        <time>2020-11-29T15:26:08.000Z</time>
      </trkpt>
      <trkpt lat="47.29795" lon="4.9934">
        <ele>420</ele>
        <time>2020-11-29T15:26:15.000Z</time>
      </trkpt>
      <trkpt lat="47.29785" lon="4.99334">
        <ele>420</ele>
        <time>2020-11-29T15:26:19.000Z</time>
      </trkpt>
      <trkpt lat="47.29776" lon="4.99334">
        <ele>418</ele>
        <time>2020-11-29T15:26:31.000Z</time>
      </trkpt>
      <trkpt lat="47.29768" lon="4.99329">
        <ele>425</ele>
        <time>2020-11-29T15:26:40.000Z</time>
      </trkpt>
      <trkpt lat="47.29759" lon="4.9932">
        <ele>419</ele>
        <time>2020-11-29T15:26:49.000Z</time>
      </trkpt>
      <trkpt lat="47.29747" lon="4.99312">
        <ele>416</ele>
        <time>2020-11-29T15:26:56.000Z</time>
      </trkpt>
      <trkpt lat="47.29738" lon="4.99307">
        <ele>421</ele>
        <time>2020-11-29T15:27:01.000Z</time>
      </trkpt>
      <trkpt lat="47.29729" lon="4.99303">
        <ele>419</ele>
        <time>2020-11-29T15:27:09.000Z</time>
      </trkpt>
      <trkpt lat="47.29718" lon="4.99295">
        <ele>421</ele>
        <time>2020-11-29T15:27:19.000Z</time>
      </trkpt>
      <trkpt lat="47.2971" lon="4.99289">
        <ele>420</ele>
        <time>2020-11-29T15:27:26.000Z</time>
      </trkpt>
      <trkpt lat="47.29699" lon="4.99284">
        <ele>419</ele>
        <time>2020-11-29T15:27:36.000Z</time>
      </trkpt>
      <trkpt lat="47.2969" lon="4.99279">
        <ele>421</ele>
        <time>2020-11-29T15:27:44.000Z</time>
      </trkpt>
      <trkpt lat="47.29678" lon="4.99274">
        <ele>421</ele>
        <time>2020-11-29T15:27:53.000Z</time>
      </trkpt>
      <trkpt lat="47.29668" lon="4.99268">
        <ele>424</ele>
        <time>2020-11-29T15:28:00.000Z</time>
      </trkpt>
      <trkpt lat="47.29658" lon="4.9926">
        <ele>424</ele>
        <time>2020-11-29T15:28:05.000Z</time>
      </trkpt>
      <trkpt lat="47.29651" lon="4.9925">
        <ele>425</ele>
        <time>2020-11-29T15:28:13.000Z</time>
      </trkpt>
      <trkpt lat="47.29643" lon="4.99243">
        <ele>424</ele>
        <time>2020-11-29T15:28:20.000Z</time>
      </trkpt>
      <trkpt lat="47.29633" lon="4.99237">
        <ele>422</ele>
        <time>2020-11-29T15:28:28.000Z</time>
      </trkpt>
      <trkpt lat="47.29623" lon="4.99227">
        <ele>418</ele>
        <time>2020-11-29T15:28:37.000Z</time>
      </trkpt>
      <trkpt lat="47.29614" lon="4.99216">
        <ele>416</ele>
        <time>2020-11-29T15:28:45.000Z</time>
      </trkpt>
      <trkpt lat="47.29604" lon="4.9921">
        <ele>416</ele>
        <time>2020-11-29T15:28:57.000Z</time>
      </trkpt>
      <trkpt lat="47.29594" lon="4.99204">
        <ele>414</ele>
        <time>2020-11-29T15:29:04.000Z</time>
      </trkpt>
      <trkpt lat="47.29585" lon="4.99198">
        <ele>412</ele>
        <time>2020-11-29T15:29:10.000Z</time>
      </trkpt>
      <trkpt lat="47.29574" lon="4.99189">
        <ele>423</ele>
        <time>2020-11-29T15:29:19.000Z</time>
      </trkpt>
      <trkpt lat="47.29562" lon="4.99182">
        <ele>419</ele>
        <time>2020-11-29T15:29:29.000Z</time>
      </trkpt>
      <trkpt lat="47.29554" lon="4.99173">
        <ele>422</ele>
        <time>2020-11-29T15:29:36.000Z</time>
      </trkpt>
      <trkpt lat="47.29545" lon="4.99165">
        <ele>421</ele>
        <time>2020-11-29T15:29:46.000Z</time>
      </trkpt>
      <trkpt lat="47.29538" lon="4.99158">
        <ele>416</ele>
        <time>2020-11-29T15:29:53.000Z</time>
      </trkpt>
      <trkpt lat="47.29528" lon="4.9915">
        <ele>414</ele>
        <time>2020-11-29T15:30:00.000Z</time>
      </trkpt>
      <trkpt lat="47.29517" lon="4.99141">
        <ele>413</ele>
        <time>2020-11-29T15:30:09.000Z</time>
      </trkpt>
      <trkpt lat="47.29507" lon="4.99138">
        <ele>415</ele>
        <time>2020-11-29T15:30:16.000Z</time>
      </trkpt>
      <trkpt lat="47.29498" lon="4.9913">
        <ele>417</ele>
        <time>2020-11-29T15:30:24.000Z</time>
      </trkpt>
      <trkpt lat="47.29491" lon="4.99119">
        <ele>417</ele>
        <time>2020-11-29T15:30:34.000Z</time>
      </trkpt>
      <trkpt lat="47.2948" lon="4.99107">
        <ele>417</ele>
        <time>2020-11-29T15:30:44.000Z</time>
      </trkpt>
      <trkpt lat="47.29471" lon="4.9909">
        <ele>403</ele>
        <time>2020-11-29T15:30:52.000Z</time>
      </trkpt>
      <trkpt lat="47.29463" lon="4.9908">
        <ele>413</ele>
        <time>2020-11-29T15:30:57.000Z</time>
      </trkpt>
      <trkpt lat="47.29454" lon="4.99072">
        <ele>417</ele>
        <time>2020-11-29T15:31:02.000Z</time>
      </trkpt>
      <trkpt lat="47.29445" lon="4.99065">
        <ele>418</ele>
        <time>2020-11-29T15:31:10.000Z</time>
      </trkpt>
      <trkpt lat="47.29436" lon="4.9906">
        <ele>416</ele>
        <time>2020-11-29T15:31:17.000Z</time>
      </trkpt>
      <trkpt lat="47.29427" lon="4.99051">
        <ele>412</ele>
        <time>2020-11-29T15:31:25.000Z</time>
      </trkpt>
      <trkpt lat="47.29417" lon="4.99046">
        <ele>414</ele>
        <time>2020-11-29T15:31:35.000Z</time>
      </trkpt>
      <trkpt lat="47.29408" lon="4.99035">
        <ele>419</ele>
        <time>2020-11-29T15:31:45.000Z</time>
      </trkpt>
      <trkpt lat="47.29397" lon="4.9903">
        <ele>416</ele>
        <time>2020-11-29T15:31:55.000Z</time>
      </trkpt>
      <trkpt lat="47.29384" lon="4.99025">
        <ele>413</ele>
        <time>2020-11-29T15:32:02.000Z</time>
      </trkpt>
      <trkpt lat="47.29374" lon="4.9902">
        <ele>418</ele>
        <time>2020-11-29T15:32:09.000Z</time>
      </trkpt>
      <trkpt lat="47.29366" lon="4.9901">
        <ele>416</ele>
        <time>2020-11-29T15:32:16.000Z</time>
      </trkpt>
      <trkpt lat="47.29356" lon="4.99002">
        <ele>417</ele>
        <time>2020-11-29T15:32:23.000Z</time>
      </trkpt>
      <trkpt lat="47.29347" lon="4.98994">
        <ele>417</ele>
        <time>2020-11-29T15:32:30.000Z</time>
      </trkpt>
      <trkpt lat="47.29341" lon="4.98983">
        <ele>415</ele>
        <time>2020-11-29T15:32:35.000Z</time>
      </trkpt>
      <trkpt lat="47.29335" lon="4.98973">
        <ele>411</ele>
        <time>2020-11-29T15:32:41.000Z</time>
      </trkpt>
      <trkpt lat="47.29326" lon="4.98959">
        <ele>411</ele>
        <time>2020-11-29T15:32:51.000Z</time>
      </trkpt>
      <trkpt lat="47.29319" lon="4.98949">
        <ele>410</ele>
        <time>2020-11-29T15:32:59.000Z</time>
      </trkpt>
      <trkpt lat="47.29312" lon="4.98938">
        <ele>411</ele>
        <time>2020-11-29T15:33:07.000Z</time>
      </trkpt>
      <trkpt lat="47.29306" lon="4.98927">
        <ele>412</ele>
        <time>2020-11-29T15:33:14.000Z</time>
      </trkpt>
      <trkpt lat="47.293" lon="4.98917">
        <ele>413</ele>
        <time>2020-11-29T15:33:22.000Z</time>
      </trkpt>
      <trkpt lat="47.29295" lon="4.98903">
        <ele>413</ele>
        <time>2020-11-29T15:33:30.000Z</time>
      </trkpt>
      <trkpt lat="47.29288" lon="4.98891">
        <ele>413</ele>
        <time>2020-11-29T15:33:38.000Z</time>
      </trkpt>
      <trkpt lat="47.29283" lon="4.98879">
        <ele>414</ele>
        <time>2020-11-29T15:33:44.000Z</time>
      </trkpt>
      <trkpt lat="47.29278" lon="4.98866">
        <ele>415</ele>
        <time>2020-11-29T15:33:49.000Z</time>
      </trkpt>
      <trkpt lat="47.29273" lon="4.98854">
        <ele>413</ele>
        <time>2020-11-29T15:33:58.000Z</time>
      </trkpt>
      <trkpt lat="47.29265" lon="4.98841">
        <ele>415</ele>
        <time>2020-11-29T15:34:07.000Z</time>
      </trkpt>
      <trkpt lat="47.29259" lon="4.9883">
        <ele>413</ele>
        <time>2020-11-29T15:34:16.000Z</time>
      </trkpt>
      <trkpt lat="47.29253" lon="4.98819">
        <ele>416</ele>
        <time>2020-11-29T15:34:23.000Z</time>
      </trkpt>
      <trkpt lat="47.29245" lon="4.98808">
        <ele>417</ele>
        <time>2020-11-29T15:34:31.000Z</time>
      </trkpt>
      <trkpt lat="47.2924" lon="4.98796">
        <ele>414</ele>
        <time>2020-11-29T15:34:39.000Z</time>
      </trkpt>
      <trkpt lat="47.29233" lon="4.98784">
        <ele>417</ele>
        <time>2020-11-29T15:34:46.000Z</time>
      </trkpt>
      <trkpt lat="47.29225" lon="4.98773">
        <ele>416</ele>
        <time>2020-11-29T15:34:54.000Z</time>
      </trkpt>
      <trkpt lat="47.29218" lon="4.98763">
        <ele>416</ele>
        <time>2020-11-29T15:35:01.000Z</time>
      </trkpt>
      <trkpt lat="47.29208" lon="4.98764">
        <ele>415</ele>
        <time>2020-11-29T15:35:10.000Z</time>
      </trkpt>
      <trkpt lat="47.29201" lon="4.98781">
        <ele>418</ele>
        <time>2020-11-29T15:35:18.000Z</time>
      </trkpt>
      <trkpt lat="47.29201" lon="4.98795">
        <ele>420</ele>
        <time>2020-11-29T15:35:24.000Z</time>
      </trkpt>
      <trkpt lat="47.292" lon="4.9881">
        <ele>420</ele>
        <time>2020-11-29T15:35:31.000Z</time>
      </trkpt>
      <trkpt lat="47.29197" lon="4.98831">
        <ele>421</ele>
        <time>2020-11-29T15:35:39.000Z</time>
      </trkpt>
      <trkpt lat="47.29194" lon="4.98846">
        <ele>420</ele>
        <time>2020-11-29T15:35:48.000Z</time>
      </trkpt>
      <trkpt lat="47.29189" lon="4.98861">
        <ele>417</ele>
        <time>2020-11-29T15:35:57.000Z</time>
      </trkpt>
      <trkpt lat="47.29185" lon="4.98883">
        <ele>416</ele>
        <time>2020-11-29T15:36:08.000Z</time>
      </trkpt>
      <trkpt lat="47.2918" lon="4.98898">
        <ele>415</ele>
        <time>2020-11-29T15:36:14.000Z</time>
      </trkpt>
      <trkpt lat="47.2918" lon="4.98911">
        <ele>416</ele>
        <time>2020-11-29T15:36:21.000Z</time>
      </trkpt>
      <trkpt lat="47.29178" lon="4.98926">
        <ele>415</ele>
        <time>2020-11-29T15:36:33.000Z</time>
      </trkpt>
      <trkpt lat="47.29173" lon="4.98939">
        <ele>413</ele>
        <time>2020-11-29T15:36:39.000Z</time>
      </trkpt>
      <trkpt lat="47.29168" lon="4.98952">
        <ele>411</ele>
        <time>2020-11-29T15:36:46.000Z</time>
      </trkpt>
      <trkpt lat="47.29164" lon="4.98968">
        <ele>412</ele>
        <time>2020-11-29T15:36:56.000Z</time>
      </trkpt>
      <trkpt lat="47.29154" lon="4.98973">
        <ele>409</ele>
        <time>2020-11-29T15:37:06.000Z</time>
      </trkpt>
      <trkpt lat="47.29143" lon="4.98975">
        <ele>411</ele>
        <time>2020-11-29T15:37:13.000Z</time>
      </trkpt>
      <trkpt lat="47.29133" lon="4.98982">
        <ele>410</ele>
        <time>2020-11-29T15:37:18.000Z</time>
      </trkpt>
      <trkpt lat="47.29124" lon="4.9899">
        <ele>410</ele>
        <time>2020-11-29T15:37:25.000Z</time>
      </trkpt>
      <trkpt lat="47.29113" lon="4.98991">
        <ele>410</ele>
        <time>2020-11-29T15:37:33.000Z</time>
      </trkpt>
      <trkpt lat="47.29103" lon="4.98995">
        <ele>408</ele>
        <time>2020-11-29T15:37:42.000Z</time>
      </trkpt>
      <trkpt lat="47.29093" lon="4.98998">
        <ele>409</ele>
        <time>2020-11-29T15:37:48.000Z</time>
      </trkpt>
      <trkpt lat="47.29083" lon="4.99002">
        <ele>407</ele>
        <time>2020-11-29T15:37:54.000Z</time>
      </trkpt>
      <trkpt lat="47.29073" lon="4.99007">
        <ele>410</ele>
        <time>2020-11-29T15:38:00.000Z</time>
      </trkpt>
      <trkpt lat="47.29065" lon="4.99013">
        <ele>406</ele>
        <time>2020-11-29T15:38:11.000Z</time>
      </trkpt>
      <trkpt lat="47.29052" lon="4.99017">
        <ele>405</ele>
        <time>2020-11-29T15:38:20.000Z</time>
      </trkpt>
      <trkpt lat="47.29045" lon="4.99027">
        <ele>404</ele>
        <time>2020-11-29T15:38:29.000Z</time>
      </trkpt>
      <trkpt lat="47.29046" lon="4.99041">
        <ele>403</ele>
        <time>2020-11-29T15:38:37.000Z</time>
      </trkpt>
      <trkpt lat="47.29045" lon="4.99055">
        <ele>404</ele>
        <time>2020-11-29T15:38:42.000Z</time>
      </trkpt>
      <trkpt lat="47.29046" lon="4.99068">
        <ele>399</ele>
        <time>2020-11-29T15:38:50.000Z</time>
      </trkpt>
      <trkpt lat="47.2905" lon="4.99083">
        <ele>399</ele>
        <time>2020-11-29T15:39:00.000Z</time>
      </trkpt>
      <trkpt lat="47.29054" lon="4.99096">
        <ele>399</ele>
        <time>2020-11-29T15:39:07.000Z</time>
      </trkpt>
      <trkpt lat="47.29059" lon="4.9911">
        <ele>398</ele>
        <time>2020-11-29T15:39:17.000Z</time>
      </trkpt>
      <trkpt lat="47.29065" lon="4.99122">
        <ele>398</ele>
        <time>2020-11-29T15:39:27.000Z</time>
      </trkpt>
      <trkpt lat="47.29072" lon="4.99135">
        <ele>392</ele>
        <time>2020-11-29T15:39:36.000Z</time>
      </trkpt>
      <trkpt lat="47.29078" lon="4.9915">
        <ele>394</ele>
        <time>2020-11-29T15:39:43.000Z</time>
      </trkpt>
      <trkpt lat="47.29084" lon="4.99165">
        <ele>392</ele>
        <time>2020-11-29T15:39:51.000Z</time>
      </trkpt>
      <trkpt lat="47.29089" lon="4.99178">
        <ele>391</ele>
        <time>2020-11-29T15:39:59.000Z</time>
      </trkpt>
      <trkpt lat="47.29095" lon="4.99194">
        <ele>391</ele>
        <time>2020-11-29T15:40:07.000Z</time>
      </trkpt>
      <trkpt lat="47.291" lon="4.99206">
        <ele>391</ele>
        <time>2020-11-29T15:40:13.000Z</time>
      </trkpt>
      <trkpt lat="47.29103" lon="4.99218">
        <ele>390</ele>
        <time>2020-11-29T15:40:20.000Z</time>
      </trkpt>
      <trkpt lat="47.29105" lon="4.99236">
        <ele>388</ele>
        <time>2020-11-29T15:40:29.000Z</time>
      </trkpt>
      <trkpt lat="47.29102" lon="4.99254">
        <ele>388</ele>
        <time>2020-11-29T15:40:37.000Z</time>
      </trkpt>
      <trkpt lat="47.29098" lon="4.99266">
        <ele>387</ele>
        <time>2020-11-29T15:40:46.000Z</time>
      </trkpt>
      <trkpt lat="47.29096" lon="4.99282">
        <ele>386</ele>
        <time>2020-11-29T15:40:53.000Z</time>
      </trkpt>
      <trkpt lat="47.29092" lon="4.99294">
        <ele>381</ele>
        <time>2020-11-29T15:41:00.000Z</time>
      </trkpt>
      <trkpt lat="47.29089" lon="4.99309">
        <ele>380</ele>
        <time>2020-11-29T15:41:09.000Z</time>
      </trkpt>
      <trkpt lat="47.29087" lon="4.99325">
        <ele>378</ele>
        <time>2020-11-29T15:41:18.000Z</time>
      </trkpt>
      <trkpt lat="47.29083" lon="4.99339">
        <ele>378</ele>
        <time>2020-11-29T15:41:25.000Z</time>
      </trkpt>
      <trkpt lat="47.29079" lon="4.99355">
        <ele>379</ele>
        <time>2020-11-29T15:41:32.000Z</time>
      </trkpt>
      <trkpt lat="47.29075" lon="4.99369">
        <ele>378</ele>
        <time>2020-11-29T15:41:39.000Z</time>
      </trkpt>
      <trkpt lat="47.29066" lon="4.99374">
        <ele>379</ele>
        <time>2020-11-29T15:41:47.000Z</time>
      </trkpt>
      <trkpt lat="47.29063" lon="4.99356">
        <ele>381</ele>
        <time>2020-11-29T15:42:00.000Z</time>
      </trkpt>
      <trkpt lat="47.29065" lon="4.99341">
        <ele>391</ele>
        <time>2020-11-29T15:42:08.000Z</time>
      </trkpt>
      <trkpt lat="47.29062" lon="4.99326">
        <ele>386</ele>
        <time>2020-11-29T15:42:16.000Z</time>
      </trkpt>
      <trkpt lat="47.2906" lon="4.99311">
        <ele>383</ele>
        <time>2020-11-29T15:42:24.000Z</time>
      </trkpt>
      <trkpt lat="47.29059" lon="4.99293">
        <ele>383</ele>
        <time>2020-11-29T15:42:33.000Z</time>
      </trkpt>
      <trkpt lat="47.29057" lon="4.99279">
        <ele>391</ele>
        <time>2020-11-29T15:42:42.000Z</time>
      </trkpt>
      <trkpt lat="47.29056" lon="4.99265">
        <ele>398</ele>
        <time>2020-11-29T15:42:53.000Z</time>
      </trkpt>
      <trkpt lat="47.29056" lon="4.99247">
        <ele>389</ele>
        <time>2020-11-29T15:43:15.000Z</time>
      </trkpt>
      <trkpt lat="47.29055" lon="4.99231">
        <ele>389</ele>
        <time>2020-11-29T15:43:24.000Z</time>
      </trkpt>
      <trkpt lat="47.29054" lon="4.99218">
        <ele>390</ele>
        <time>2020-11-29T15:43:32.000Z</time>
      </trkpt>
      <trkpt lat="47.29053" lon="4.99203">
        <ele>390</ele>
        <time>2020-11-29T15:43:44.000Z</time>
      </trkpt>
      <trkpt lat="47.29052" lon="4.99186">
        <ele>395</ele>
        <time>2020-11-29T15:43:55.000Z</time>
      </trkpt>
      <trkpt lat="47.2905" lon="4.99172">
        <ele>398</ele>
        <time>2020-11-29T15:44:03.000Z</time>
      </trkpt>
      <trkpt lat="47.29042" lon="4.99159">
        <ele>396</ele>
        <time>2020-11-29T15:44:14.000Z</time>
      </trkpt>
      <trkpt lat="47.29034" lon="4.99146">
        <ele>394</ele>
        <time>2020-11-29T15:44:26.000Z</time>
      </trkpt>
      <trkpt lat="47.29026" lon="4.99138">
        <ele>394</ele>
        <time>2020-11-29T15:44:34.000Z</time>
      </trkpt>
      <trkpt lat="47.2902" lon="4.99126">
        <ele>390</ele>
        <time>2020-11-29T15:44:42.000Z</time>
      </trkpt>
      <trkpt lat="47.29013" lon="4.99114">
        <ele>390</ele>
        <time>2020-11-29T15:44:51.000Z</time>
      </trkpt>
      <trkpt lat="47.2901" lon="4.991">
        <ele>391</ele>
        <time>2020-11-29T15:45:00.000Z</time>
      </trkpt>
      <trkpt lat="47.29004" lon="4.99084">
        <ele>393</ele>
        <time>2020-11-29T15:45:09.000Z</time>
      </trkpt>
      <trkpt lat="47.28997" lon="4.99074">
        <ele>394</ele>
        <time>2020-11-29T15:45:18.000Z</time>
      </trkpt>
      <trkpt lat="47.28987" lon="4.99067">
        <ele>394</ele>
        <time>2020-11-29T15:45:26.000Z</time>
      </trkpt>
      <trkpt lat="47.2898" lon="4.99056">
        <ele>395</ele>
        <time>2020-11-29T15:45:34.000Z</time>
      </trkpt>
      <trkpt lat="47.28972" lon="4.99048">
        <ele>395</ele>
        <time>2020-11-29T15:45:41.000Z</time>
      </trkpt>
      <trkpt lat="47.28963" lon="4.99039">
        <ele>398</ele>
        <time>2020-11-29T15:45:50.000Z</time>
      </trkpt>
      <trkpt lat="47.28958" lon="4.99026">
        <ele>397</ele>
        <time>2020-11-29T15:46:08.000Z</time>
      </trkpt>
      <trkpt lat="47.28952" lon="4.99014">
        <ele>396</ele>
        <time>2020-11-29T15:46:17.000Z</time>
      </trkpt>
      <trkpt lat="47.28942" lon="4.99004">
        <ele>394</ele>
        <time>2020-11-29T15:46:24.000Z</time>
      </trkpt>
      <trkpt lat="47.28935" lon="4.98994">
        <ele>397</ele>
        <time>2020-11-29T15:46:30.000Z</time>
      </trkpt>
      <trkpt lat="47.28926" lon="4.98986">
        <ele>399</ele>
        <time>2020-11-29T15:46:36.000Z</time>
      </trkpt>
      <trkpt lat="47.28917" lon="4.98979">
        <ele>399</ele>
        <time>2020-11-29T15:46:44.000Z</time>
      </trkpt>
      <trkpt lat="47.28908" lon="4.98972">
        <ele>400</ele>
        <time>2020-11-29T15:46:50.000Z</time>
      </trkpt>
      <trkpt lat="47.28901" lon="4.98965">
        <ele>405</ele>
        <time>2020-11-29T15:46:57.000Z</time>
      </trkpt>
      <trkpt lat="47.28889" lon="4.98954">
        <ele>399</ele>
        <time>2020-11-29T15:47:16.000Z</time>
      </trkpt>
      <trkpt lat="47.28881" lon="4.98948">
        <ele>399</ele>
        <time>2020-11-29T15:47:19.000Z</time>
      </trkpt>
      <trkpt lat="47.28874" lon="4.98937">
        <ele>403</ele>
        <time>2020-11-29T15:47:23.000Z</time>
      </trkpt>
      <trkpt lat="47.28865" lon="4.98928">
        <ele>402</ele>
        <time>2020-11-29T15:47:28.000Z</time>
      </trkpt>
      <trkpt lat="47.28857" lon="4.98919">
        <ele>399</ele>
        <time>2020-11-29T15:47:34.000Z</time>
      </trkpt>
      <trkpt lat="47.28848" lon="4.98913">
        <ele>397</ele>
        <time>2020-11-29T15:47:42.000Z</time>
      </trkpt>
      <trkpt lat="47.28841" lon="4.98903">
        <ele>397</ele>
        <time>2020-11-29T15:47:52.000Z</time>
      </trkpt>
      <trkpt lat="47.28835" lon="4.98893">
        <ele>398</ele>
        <time>2020-11-29T15:47:59.000Z</time>
      </trkpt>
      <trkpt lat="47.28829" lon="4.98881">
        <ele>396</ele>
        <time>2020-11-29T15:48:07.000Z</time>
      </trkpt>
      <trkpt lat="47.28822" lon="4.98868">
        <ele>398</ele>
        <time>2020-11-29T15:48:14.000Z</time>
      </trkpt>
      <trkpt lat="47.28809" lon="4.98858">
        <ele>398</ele>
        <time>2020-11-29T15:48:27.000Z</time>
      </trkpt>
      <trkpt lat="47.28799" lon="4.98854">
        <ele>398</ele>
        <time>2020-11-29T15:48:37.000Z</time>
      </trkpt>
      <trkpt lat="47.28787" lon="4.98852">
        <ele>398</ele>
        <time>2020-11-29T15:48:46.000Z</time>
      </trkpt>
      <trkpt lat="47.28776" lon="4.98848">
        <ele>400</ele>
        <time>2020-11-29T15:48:55.000Z</time>
      </trkpt>
      <trkpt lat="47.28766" lon="4.98838">
        <ele>401</ele>
        <time>2020-11-29T15:49:03.000Z</time>
      </trkpt>
      <trkpt lat="47.28755" lon="4.98829">
        <ele>404</ele>
        <time>2020-11-29T15:49:12.000Z</time>
      </trkpt>
      <trkpt lat="47.28747" lon="4.98823">
        <ele>403</ele>
        <time>2020-11-29T15:49:19.000Z</time>
      </trkpt>
      <trkpt lat="47.28736" lon="4.98815">
        <ele>402</ele>
        <time>2020-11-29T15:49:28.000Z</time>
      </trkpt>
      <trkpt lat="47.28728" lon="4.98809">
        <ele>401</ele>
        <time>2020-11-29T15:49:35.000Z</time>
      </trkpt>
      <trkpt lat="47.28717" lon="4.98804">
        <ele>402</ele>
        <time>2020-11-29T15:49:45.000Z</time>
      </trkpt>
      <trkpt lat="47.2871" lon="4.98796">
        <ele>404</ele>
        <time>2020-11-29T15:49:52.000Z</time>
      </trkpt>
      <trkpt lat="47.28703" lon="4.98785">
        <ele>403</ele>
        <time>2020-11-29T15:50:00.000Z</time>
      </trkpt>
      <trkpt lat="47.28693" lon="4.98776">
        <ele>400</ele>
        <time>2020-11-29T15:50:25.000Z</time>
      </trkpt>
      <trkpt lat="47.28682" lon="4.98767">
        <ele>401</ele>
        <time>2020-11-29T15:50:34.000Z</time>
      </trkpt>
      <trkpt lat="47.28674" lon="4.98761">
        <ele>401</ele>
        <time>2020-11-29T15:50:40.000Z</time>
      </trkpt>
      <trkpt lat="47.28664" lon="4.98754">
        <ele>399</ele>
        <time>2020-11-29T15:50:47.000Z</time>
      </trkpt>
      <trkpt lat="47.28656" lon="4.98744">
        <ele>400</ele>
        <time>2020-11-29T15:50:55.000Z</time>
      </trkpt>
      <trkpt lat="47.28647" lon="4.98737">
        <ele>400</ele>
        <time>2020-11-29T15:51:02.000Z</time>
      </trkpt>
      <trkpt lat="47.28637" lon="4.98741">
        <ele>395</ele>
        <time>2020-11-29T15:51:12.000Z</time>
      </trkpt>
      <trkpt lat="47.28624" lon="4.98745">
        <ele>395</ele>
        <time>2020-11-29T15:51:26.000Z</time>
      </trkpt>
      <trkpt lat="47.28613" lon="4.98737">
        <ele>395</ele>
        <time>2020-11-29T15:51:36.000Z</time>
      </trkpt>
      <trkpt lat="47.28607" lon="4.98722">
        <ele>394</ele>
        <time>2020-11-29T15:51:48.000Z</time>
      </trkpt>
      <trkpt lat="47.28597" lon="4.98718">
        <ele>395</ele>
        <time>2020-11-29T15:52:01.000Z</time>
      </trkpt>
      <trkpt lat="47.28588" lon="4.98715">
        <ele>391</ele>
        <time>2020-11-29T15:52:07.000Z</time>
      </trkpt>
      <trkpt lat="47.28578" lon="4.98709">
        <ele>387</ele>
        <time>2020-11-29T15:52:17.000Z</time>
      </trkpt>
      <trkpt lat="47.28568" lon="4.98708">
        <ele>387</ele>
        <time>2020-11-29T15:52:26.000Z</time>
      </trkpt>
      <trkpt lat="47.28558" lon="4.98708">
        <ele>388</ele>
        <time>2020-11-29T15:52:34.000Z</time>
      </trkpt>
      <trkpt lat="47.28547" lon="4.98711">
        <ele>389</ele>
        <time>2020-11-29T15:52:44.000Z</time>
      </trkpt>
      <trkpt lat="47.28536" lon="4.98716">
        <ele>387</ele>
        <time>2020-11-29T15:52:54.000Z</time>
      </trkpt>
      <trkpt lat="47.28526" lon="4.98709">
        <ele>387</ele>
        <time>2020-11-29T15:53:06.000Z</time>
      </trkpt>
      <trkpt lat="47.28528" lon="4.98723">
        <ele>384</ele>
        <time>2020-11-29T15:54:14.000Z</time>
      </trkpt>
      <trkpt lat="47.28517" lon="4.98727">
        <ele>382</ele>
        <time>2020-11-29T15:54:23.000Z</time>
      </trkpt>
      <trkpt lat="47.28507" lon="4.98723">
        <ele>383</ele>
        <time>2020-11-29T15:54:34.000Z</time>
      </trkpt>
      <trkpt lat="47.28498" lon="4.98716">
        <ele>385</ele>
        <time>2020-11-29T15:54:43.000Z</time>
      </trkpt>
      <trkpt lat="47.28489" lon="4.98715">
        <ele>382</ele>
        <time>2020-11-29T15:54:54.000Z</time>
      </trkpt>
      <trkpt lat="47.28479" lon="4.98712">
        <ele>379</ele>
        <time>2020-11-29T15:55:05.000Z</time>
      </trkpt>
      <trkpt lat="47.28467" lon="4.98716">
        <ele>378</ele>
        <time>2020-11-29T15:55:16.000Z</time>
      </trkpt>
      <trkpt lat="47.28458" lon="4.98712">
        <ele>375</ele>
        <time>2020-11-29T15:55:29.000Z</time>
      </trkpt>
      <trkpt lat="47.2845" lon="4.98706">
        <ele>371</ele>
        <time>2020-11-29T15:55:41.000Z</time>
      </trkpt>
      <trkpt lat="47.28441" lon="4.98699">
        <ele>369</ele>
        <time>2020-11-29T15:55:55.000Z</time>
      </trkpt>
      <trkpt lat="47.28437" lon="4.98685">
        <ele>369</ele>
        <time>2020-11-29T15:56:07.000Z</time>
      </trkpt>
      <trkpt lat="47.28434" lon="4.9867">
        <ele>370</ele>
        <time>2020-11-29T15:56:16.000Z</time>
      </trkpt>
      <trkpt lat="47.28429" lon="4.98656">
        <ele>374</ele>
        <time>2020-11-29T15:56:23.000Z</time>
      </trkpt>
      <trkpt lat="47.28426" lon="4.98639">
        <ele>374</ele>
        <time>2020-11-29T15:56:30.000Z</time>
      </trkpt>
      <trkpt lat="47.28416" lon="4.98641">
        <ele>369</ele>
        <time>2020-11-29T15:56:41.000Z</time>
      </trkpt>
      <trkpt lat="47.28406" lon="4.98646">
        <ele>366</ele>
        <time>2020-11-29T15:56:49.000Z</time>
      </trkpt>
      <trkpt lat="47.28395" lon="4.98646">
        <ele>363</ele>
        <time>2020-11-29T15:57:00.000Z</time>
      </trkpt>
      <trkpt lat="47.28385" lon="4.98645">
        <ele>362</ele>
        <time>2020-11-29T15:57:08.000Z</time>
      </trkpt>
      <trkpt lat="47.28375" lon="4.98643">
        <ele>363</ele>
        <time>2020-11-29T15:57:16.000Z</time>
      </trkpt>
      <trkpt lat="47.28366" lon="4.98643">
        <ele>358</ele>
        <time>2020-11-29T15:57:25.000Z</time>
      </trkpt>
      <trkpt lat="47.28361" lon="4.98628">
        <ele>362</ele>
        <time>2020-11-29T15:57:35.000Z</time>
      </trkpt>
    </trkseg>
  </trk>
</gpx>